Imperial, Nebraska
Current Conditions -  °F | °C
As of 12:53 AM on Sunday 21 Dec 2014 (Local Time) from KIML Reporting Station
Overcast Overcast  
Wind Chill: 31°   Ceiling: 11000
Heat Index: 36°   Visibility: 10mi
Dew Point: 26°   Wind: 6mph
Humidity: 67%   Direction: 200°SSW
Pressure: 29.87"   Gusts: NA
Location:  40.52°N, 101.64°W
Report Text: KIML 210753Z AUTO 20005KT 10SM OVC110 02/M03 A2987 RMK AO2 SLP125 T00221033
Loading
Personal Weather Stations






























Interactive Weather Map New forecast layout! Learn more

10-Day Weather Forecast

Advertisements
Track Severe Weather on mobile